sensor_id;sensor_type;location;lat;lon;timestamp;temperature;humidity
18712;DHT22;9485;49.386;8.674;2023-02-11T00:03:19;5.10;76.60
18712;DHT22;9485;49.386;8.674;2023-02-11T00:08:40;5.10;76.40
18712;DHT22;9485;49.386;8.674;2023-02-11T00:14:04;5.00;76.70
18712;DHT22;9485;49.386;8.674;2023-02-11T00:19:26;5.00;76.70
18712;DHT22;9485;49.386;8.674;2023-02-11T00:24:47;5.00;76.90
18712;DHT22;9485;49.386;8.674;2023-02-11T00:30:10;5.00;76.90
18712;DHT22;9485;49.386;8.674;2023-02-11T00:35:31;5.10;77.00
18712;DHT22;9485;49.386;8.674;2023-02-11T00:40:52;5.10;76.90
18712;DHT22;9485;49.386;8.674;2023-02-11T00:46:14;5.10;77.00
18712;DHT22;9485;49.386;8.674;2023-02-11T00:51:35;5.20;77.20
18712;DHT22;9485;49.386;8.674;2023-02-11T00:56:56;5.20;77.30
18712;DHT22;9485;49.386;8.674;2023-02-11T01:02:18;5.20;77.50
18712;DHT22;9485;49.386;8.674;2023-02-11T01:07:39;5.30;77.50
18712;DHT22;9485;49.386;8.674;2023-02-11T01:12:59;5.30;77.50
18712;DHT22;9485;49.386;8.674;2023-02-11T01:18:22;5.30;77.30
18712;DHT22;9485;49.386;8.674;2023-02-11T01:23:43;5.30;78.10
18712;DHT22;9485;49.386;8.674;2023-02-11T01:29:04;5.30;77.50
18712;DHT22;9485;49.386;8.674;2023-02-11T01:34:26;5.30;77.50
18712;DHT22;9485;49.386;8.674;2023-02-11T01:39:47;5.40;77.50
18712;DHT22;9485;49.386;8.674;2023-02-11T01:45:48;5.30;77.20
18712;DHT22;9485;49.386;8.674;2023-02-11T01:51:21;5.30;77.00
18712;DHT22;9485;49.386;8.674;2023-02-11T01:56:47;5.20;77.10
18712;DHT22;9485;49.386;8.674;2023-02-11T02:02:33;5.20;77.20
18712;DHT22;9485;49.386;8.674;2023-02-11T02:08:08;5.20;77.30
18712;DHT22;9485;49.386;8.674;2023-02-11T02:13:34;5.20;77.30
18712;DHT22;9485;49.386;8.674;2023-02-11T02:19:02;5.20;77.40
18712;DHT22;9485;49.386;8.674;2023-02-11T02:25:11;5.20;77.50
18712;DHT22;9485;49.386;8.674;2023-02-11T02:31:16;5.20;77.20
18712;DHT22;9485;49.386;8.674;2023-02-11T02:37:03;5.20;77.40
18712;DHT22;9485;49.386;8.674;2023-02-11T02:42:28;5.20;78.40
18712;DHT22;9485;49.386;8.674;2023-02-11T02:47:50;5.10;77.30
18712;DHT22;9485;49.386;8.674;2023-02-11T02:53:19;5.10;77.40
18712;DHT22;9485;49.386;8.674;2023-02-11T02:59:02;5.00;77.30
18712;DHT22;9485;49.386;8.674;2023-02-11T03:04:47;5.00;77.30
18712;DHT22;9485;49.386;8.674;2023-02-11T03:10:20;5.00;77.60
18712;DHT22;9485;49.386;8.674;2023-02-11T03:15:45;5.00;77.90
18712;DHT22;9485;49.386;8.674;2023-02-11T03:21:09;5.00;77.90
18712;DHT22;9485;49.386;8.674;2023-02-11T03:26:37;5.00;77.90
18712;DHT22;9485;49.386;8.674;2023-02-11T03:32:05;5.00;77.90
18712;DHT22;9485;49.386;8.674;2023-02-11T03:37:33;5.00;78.00
18712;DHT22;9485;49.386;8.674;2023-02-11T03:43:02;4.90;78.00
18712;DHT22;9485;49.386;8.674;2023-02-11T03:48:29;4.90;78.10
18712;DHT22;9485;49.386;8.674;2023-02-11T03:53:54;4.90;78.10
18712;DHT22;9485;49.386;8.674;2023-02-11T03:59:20;4.90;78.30
18712;DHT22;9485;49.386;8.674;2023-02-11T04:04:41;4.90;78.10
18712;DHT22;9485;49.386;8.674;2023-02-11T04:10:02;4.90;78.10
18712;DHT22;9485;49.386;8.674;2023-02-11T04:15:24;4.90;78.20
18712;DHT22;9485;49.386;8.674;2023-02-11T04:20:44;4.90;78.20
18712;DHT22;9485;49.386;8.674;2023-02-11T04:26:05;4.90;78.30
18712;DHT22;9485;49.386;8.674;2023-02-11T04:31:27;4.90;78.50
18712;DHT22;9485;49.386;8.674;2023-02-11T04:36:48;5.00;78.40
18712;DHT22;9485;49.386;8.674;2023-02-11T04:42:11;5.00;78.40
18712;DHT22;9485;49.386;8.674;2023-02-11T04:47:33;5.00;78.50
18712;DHT22;9485;49.386;8.674;2023-02-11T04:52:56;5.00;78.30
18712;DHT22;9485;49.386;8.674;2023-02-11T04:58:16;5.00;78.60
18712;DHT22;9485;49.386;8.674;2023-02-11T05:03:40;5.00;78.50
18712;DHT22;9485;49.386;8.674;2023-02-11T05:09:02;5.00;78.40
18712;DHT22;9485;49.386;8.674;2023-02-11T05:14:22;5.00;78.50
18712;DHT22;9485;49.386;8.674;2023-02-11T05:19:44;5.00;78.40
18712;DHT22;9485;49.386;8.674;2023-02-11T05:25:05;5.10;78.60
18712;DHT22;9485;49.386;8.674;2023-02-11T05:30:26;5.10;78.80
18712;DHT22;9485;49.386;8.674;2023-02-11T05:35:48;5.10;78.50
18712;DHT22;9485;49.386;8.674;2023-02-11T05:41:10;5.10;78.40
18712;DHT22;9485;49.386;8.674;2023-02-11T05:46:31;5.10;78.40
18712;DHT22;9485;49.386;8.674;2023-02-11T05:51:53;5.10;78.40
18712;DHT22;9485;49.386;8.674;2023-02-11T05:57:14;5.10;78.40
18712;DHT22;9485;49.386;8.674;2023-02-11T06:02:35;5.10;78.40
18712;DHT22;9485;49.386;8.674;2023-02-11T06:07:57;5.10;78.60
18712;DHT22;9485;49.386;8.674;2023-02-11T06:13:17;5.10;78.60
18712;DHT22;9485;49.386;8.674;2023-02-11T06:18:38;5.10;78.80
18712;DHT22;9485;49.386;8.674;2023-02-11T06:24:00;5.10;78.80
18712;DHT22;9485;49.386;8.674;2023-02-11T06:29:20;5.20;78.70
18712;DHT22;9485;49.386;8.674;2023-02-11T06:34:41;5.20;78.60
18712;DHT22;9485;49.386;8.674;2023-02-11T06:40:04;5.20;78.70
18712;DHT22;9485;49.386;8.674;2023-02-11T06:45:25;5.30;78.80
18712;DHT22;9485;49.386;8.674;2023-02-11T06:50:46;5.30;78.90
18712;DHT22;9485;49.386;8.674;2023-02-11T06:56:10;5.30;78.60
18712;DHT22;9485;49.386;8.674;2023-02-11T07:01:31;5.30;78.60
18712;DHT22;9485;49.386;8.674;2023-02-11T07:06:52;5.30;78.80
18712;DHT22;9485;49.386;8.674;2023-02-11T07:12:14;5.20;78.60
18712;DHT22;9485;49.386;8.674;2023-02-11T07:17:35;5.20;78.40
18712;DHT22;9485;49.386;8.674;2023-02-11T07:22:56;5.20;78.50
18712;DHT22;9485;49.386;8.674;2023-02-11T07:28:19;5.20;78.60
18712;DHT22;9485;49.386;8.674;2023-02-11T07:33:40;5.20;78.60
18712;DHT22;9485;49.386;8.674;2023-02-11T07:39:01;5.20;78.70
18712;DHT22;9485;49.386;8.674;2023-02-11T07:44:23;5.30;78.70
18712;DHT22;9485;49.386;8.674;2023-02-11T07:49:45;5.30;78.40
18712;DHT22;9485;49.386;8.674;2023-02-11T07:55:06;5.30;78.40
18712;DHT22;9485;49.386;8.674;2023-02-11T08:00:29;5.30;78.50
18712;DHT22;9485;49.386;8.674;2023-02-11T08:05:50;5.40;78.60
18712;DHT22;9485;49.386;8.674;2023-02-11T08:11:12;5.40;78.70
18712;DHT22;9485;49.386;8.674;2023-02-11T08:16:36;5.50;78.70
18712;DHT22;9485;49.386;8.674;2023-02-11T08:21:58;5.60;78.30
18712;DHT22;9485;49.386;8.674;2023-02-11T08:27:19;5.70;78.80
18712;DHT22;9485;49.386;8.674;2023-02-11T08:32:41;5.90;79.30
18712;DHT22;9485;49.386;8.674;2023-02-11T08:38:01;6.20;79.30
18712;DHT22;9485;49.386;8.674;2023-02-11T08:43:22;6.50;79.60
18712;DHT22;9485;49.386;8.674;2023-02-11T08:48:45;6.90;80.00
18712;DHT22;9485;49.386;8.674;2023-02-11T08:54:06;7.40;79.90
18712;DHT22;9485;49.386;8.674;2023-02-11T08:59:28;7.70;78.50
18712;DHT22;9485;49.386;8.674;2023-02-11T09:04:50;8.00;77.60
18712;DHT22;9485;49.386;8.674;2023-02-11T09:10:10;8.10;77.30
18712;DHT22;9485;49.386;8.674;2023-02-11T09:15:31;8.20;77.30
18712;DHT22;9485;49.386;8.674;2023-02-11T09:21:01;8.40;77.30
18712;DHT22;9485;49.386;8.674;2023-02-11T09:26:25;8.80;77.20
18712;DHT22;9485;49.386;8.674;2023-02-11T09:31:47;9.30;78.10
18712;DHT22;9485;49.386;8.674;2023-02-11T09:37:09;9.80;78.80
18712;DHT22;9485;49.386;8.674;2023-02-11T09:42:45;10.70;78.00
18712;DHT22;9485;49.386;8.674;2023-02-11T09:48:13;11.30;73.90
18712;DHT22;9485;49.386;8.674;2023-02-11T09:53:41;11.70;74.40
18712;DHT22;9485;49.386;8.674;2023-02-11T09:59:03;12.10;73.60
18712;DHT22;9485;49.386;8.674;2023-02-11T10:10:36;12.60;71.00
18712;DHT22;9485;49.386;8.674;2023-02-11T10:16:13;12.50;71.30
18712;DHT22;9485;49.386;8.674;2023-02-11T10:24:15;12.40;69.90
18712;DHT22;9485;49.386;8.674;2023-02-11T10:29:40;12.30;72.20
18712;DHT22;9485;49.386;8.674;2023-02-11T10:35:13;12.40;72.80
18712;DHT22;9485;49.386;8.674;2023-02-11T10:40:37;12.60;71.90
18712;DHT22;9485;49.386;8.674;2023-02-11T10:45:59;12.70;72.30
18712;DHT22;9485;49.386;8.674;2023-02-11T10:51:25;12.80;72.20
18712;DHT22;9485;49.386;8.674;2023-02-11T10:56:49;13.00;71.80
18712;DHT22;9485;49.386;8.674;2023-02-11T11:02:22;13.30;73.30
18712;DHT22;9485;49.386;8.674;2023-02-11T11:07:52;13.90;73.20
18712;DHT22;9485;49.386;8.674;2023-02-11T11:13:26;14.30;71.70
18712;DHT22;9485;49.386;8.674;2023-02-11T11:18:51;14.40;69.70
18712;DHT22;9485;49.386;8.674;2023-02-11T11:24:18;14.50;71.10
18712;DHT22;9485;49.386;8.674;2023-02-11T11:29:45;14.60;69.80
18712;DHT22;9485;49.386;8.674;2023-02-11T11:35:23;14.70;69.20
18712;DHT22;9485;49.386;8.674;2023-02-11T11:41:16;14.90;68.40
18712;DHT22;9485;49.386;8.674;2023-02-11T11:46:45;15.20;66.50
18712;DHT22;9485;49.386;8.674;2023-02-11T11:52:19;15.40;64.60
18712;DHT22;9485;49.386;8.674;2023-02-11T11:57:52;15.40;63.30
18712;DHT22;9485;49.386;8.674;2023-02-11T12:03:34;15.30;67.10
18712;DHT22;9485;49.386;8.674;2023-02-11T12:09:18;15.30;64.50
18712;DHT22;9485;49.386;8.674;2023-02-11T12:14:50;15.20;65.50
18712;DHT22;9485;49.386;8.674;2023-02-11T12:20:28;15.10;66.90
18712;DHT22;9485;49.386;8.674;2023-02-11T12:26:01;15.00;67.20
18712;DHT22;9485;49.386;8.674;2023-02-11T12:31:39;15.00;68.00
18712;DHT22;9485;49.386;8.674;2023-02-11T12:37:17;15.10;67.60
18712;DHT22;9485;49.386;8.674;2023-02-11T12:42:54;15.20;68.50
18712;DHT22;9485;49.386;8.674;2023-02-11T12:49:17;15.40;69.80
18712;DHT22;9485;49.386;8.674;2023-02-11T12:55:01;15.60;68.90
18712;DHT22;9485;49.386;8.674;2023-02-11T13:00:33;15.70;70.40
18712;DHT22;9485;49.386;8.674;2023-02-11T13:06:04;15.80;70.80
18712;DHT22;9485;49.386;8.674;2023-02-11T13:11:34;16.00;70.20
18712;DHT22;9485;49.386;8.674;2023-02-11T13:16:58;16.30;68.20
18712;DHT22;9485;49.386;8.674;2023-02-11T13:22:22;16.40;68.80
18712;DHT22;9485;49.386;8.674;2023-02-11T13:27:55;16.30;66.00
18712;DHT22;9485;49.386;8.674;2023-02-11T13:33:29;16.00;64.90
18712;DHT22;9485;49.386;8.674;2023-02-11T13:38:55;15.70;65.60
18712;DHT22;9485;49.386;8.674;2023-02-11T13:44:22;15.40;64.20
18712;DHT22;9485;49.386;8.674;2023-02-11T13:49:49;15.10;64.80
18712;DHT22;9485;49.386;8.674;2023-02-11T13:55:19;14.70;65.50
18712;DHT22;9485;49.386;8.674;2023-02-11T14:00:46;14.50;65.40
18712;DHT22;9485;49.386;8.674;2023-02-11T14:06:14;14.20;65.30
18712;DHT22;9485;49.386;8.674;2023-02-11T14:12:20;14.00;66.90
18712;DHT22;9485;49.386;8.674;2023-02-11T14:17:51;13.80;65.80
18712;DHT22;9485;49.386;8.674;2023-02-11T14:23:23;13.60;67.40
18712;DHT22;9485;49.386;8.674;2023-02-11T14:28:47;13.50;67.20
18712;DHT22;9485;49.386;8.674;2023-02-11T14:34:36;13.30;68.50
18712;DHT22;9485;49.386;8.674;2023-02-11T14:40:17;13.20;68.10
18712;DHT22;9485;49.386;8.674;2023-02-11T14:45:54;13.10;68.80
18712;DHT22;9485;49.386;8.674;2023-02-11T14:51:20;13.00;69.30
18712;DHT22;9485;49.386;8.674;2023-02-11T14:56:44;13.00;69.60
18712;DHT22;9485;49.386;8.674;2023-02-11T15:02:19;12.90;69.70
18712;DHT22;9485;49.386;8.674;2023-02-11T15:07:46;12.80;69.10
18712;DHT22;9485;49.386;8.674;2023-02-11T15:13:16;12.70;70.10
18712;DHT22;9485;49.386;8.674;2023-02-11T15:18:40;12.60;70.30
18712;DHT22;9485;49.386;8.674;2023-02-11T15:24:21;12.60;71.10
18712;DHT22;9485;49.386;8.674;2023-02-11T15:29:46;12.50;70.60
18712;DHT22;9485;49.386;8.674;2023-02-11T15:35:10;12.40;71.50
18712;DHT22;9485;49.386;8.674;2023-02-11T15:40:35;12.30;72.50
18712;DHT22;9485;49.386;8.674;2023-02-11T15:45:58;12.20;72.10
18712;DHT22;9485;49.386;8.674;2023-02-11T15:51:22;12.10;72.40
18712;DHT22;9485;49.386;8.674;2023-02-11T15:56:50;12.10;72.80
18712;DHT22;9485;49.386;8.674;2023-02-11T16:02:16;12.00;73.00
18712;DHT22;9485;49.386;8.674;2023-02-11T16:07:44;12.00;73.20
18712;DHT22;9485;49.386;8.674;2023-02-11T16:13:18;11.90;73.40
18712;DHT22;9485;49.386;8.674;2023-02-11T16:18:43;11.80;73.50
18712;DHT22;9485;49.386;8.674;2023-02-11T16:24:17;11.70;73.70
18712;DHT22;9485;49.386;8.674;2023-02-11T16:29:44;11.60;73.70
18712;DHT22;9485;49.386;8.674;2023-02-11T16:35:10;11.60;73.80
18712;DHT22;9485;49.386;8.674;2023-02-11T16:40:31;11.50;73.70
18712;DHT22;9485;49.386;8.674;2023-02-11T16:45:53;11.40;74.00
18712;DHT22;9485;49.386;8.674;2023-02-11T16:51:14;11.40;74.00
18712;DHT22;9485;49.386;8.674;2023-02-11T16:56:34;11.30;74.30
18712;DHT22;9485;49.386;8.674;2023-02-11T17:01:56;11.20;74.50
18712;DHT22;9485;49.386;8.674;2023-02-11T17:07:17;11.20;74.30
18712;DHT22;9485;49.386;8.674;2023-02-11T17:12:38;11.10;74.50
18712;DHT22;9485;49.386;8.674;2023-02-11T17:18:00;11.00;74.70
18712;DHT22;9485;49.386;8.674;2023-02-11T17:23:20;11.00;74.80
18712;DHT22;9485;49.386;8.674;2023-02-11T17:28:41;10.90;75.20
18712;DHT22;9485;49.386;8.674;2023-02-11T17:34:03;10.90;75.60
18712;DHT22;9485;49.386;8.674;2023-02-11T17:39:23;10.90;75.70
18712;DHT22;9485;49.386;8.674;2023-02-11T17:44:44;10.80;75.90
18712;DHT22;9485;49.386;8.674;2023-02-11T17:50:07;10.80;76.10
18712;DHT22;9485;49.386;8.674;2023-02-11T17:55:31;10.80;76.10
18712;DHT22;9485;49.386;8.674;2023-02-11T18:00:52;10.70;76.20
18712;DHT22;9485;49.386;8.674;2023-02-11T18:06:19;11.60;77.60
18712;DHT22;9485;49.386;8.674;2023-02-11T18:11:39;10.70;76.50
18712;DHT22;9485;49.386;8.674;2023-02-11T18:17:00;10.60;76.60
18712;DHT22;9485;49.386;8.674;2023-02-11T18:22:22;10.60;76.90
18712;DHT22;9485;49.386;8.674;2023-02-11T18:27:43;10.60;77.10
18712;DHT22;9485;49.386;8.674;2023-02-11T18:33:04;10.60;77.20
18712;DHT22;9485;49.386;8.674;2023-02-11T18:38:28;10.50;77.20
18712;DHT22;9485;49.386;8.674;2023-02-11T18:43:48;10.50;77.10
18712;DHT22;9485;49.386;8.674;2023-02-11T18:49:09;10.50;77.30
18712;DHT22;9485;49.386;8.674;2023-02-11T18:54:32;10.50;77.40
18712;DHT22;9485;49.386;8.674;2023-02-11T18:59:52;10.40;77.30
18712;DHT22;9485;49.386;8.674;2023-02-11T19:05:13;10.40;77.50
18712;DHT22;9485;49.386;8.674;2023-02-11T19:10:38;10.30;77.60
18712;DHT22;9485;49.386;8.674;2023-02-11T19:16:05;10.30;77.80
18712;DHT22;9485;49.386;8.674;2023-02-11T19:21:26;10.30;77.90
18712;DHT22;9485;49.386;8.674;2023-02-11T19:26:50;10.30;78.10
18712;DHT22;9485;49.386;8.674;2023-02-11T19:32:11;10.30;79.00
18712;DHT22;9485;49.386;8.674;2023-02-11T19:37:33;10.20;79.10
18712;DHT22;9485;49.386;8.674;2023-02-11T19:42:56;10.20;78.20
18712;DHT22;9485;49.386;8.674;2023-02-11T19:48:16;10.20;78.20
18712;DHT22;9485;49.386;8.674;2023-02-11T19:53:37;10.10;78.30
18712;DHT22;9485;49.386;8.674;2023-02-11T19:59:00;10.10;78.50
18712;DHT22;9485;49.386;8.674;2023-02-11T20:04:21;10.00;78.70
18712;DHT22;9485;49.386;8.674;2023-02-11T20:09:43;10.00;78.80
18712;DHT22;9485;49.386;8.674;2023-02-11T20:15:06;10.00;78.80
18712;DHT22;9485;49.386;8.674;2023-02-11T20:20:27;10.00;79.00
18712;DHT22;9485;49.386;8.674;2023-02-11T20:25:48;10.00;79.00
18712;DHT22;9485;49.386;8.674;2023-02-11T20:31:10;9.90;78.90
18712;DHT22;9485;49.386;8.674;2023-02-11T20:36:33;9.90;79.10
18712;DHT22;9485;49.386;8.674;2023-02-11T20:41:56;9.80;79.30
18712;DHT22;9485;49.386;8.674;2023-02-11T20:47:18;9.80;79.40
18712;DHT22;9485;49.386;8.674;2023-02-11T20:52:38;9.80;79.50
18712;DHT22;9485;49.386;8.674;2023-02-11T20:57:59;9.80;79.70
18712;DHT22;9485;49.386;8.674;2023-02-11T21:03:21;9.80;79.90
18712;DHT22;9485;49.386;8.674;2023-02-11T21:08:41;9.80;80.00
18712;DHT22;9485;49.386;8.674;2023-02-11T21:14:02;9.80;80.20
18712;DHT22;9485;49.386;8.674;2023-02-11T21:19:24;9.80;80.10
18712;DHT22;9485;49.386;8.674;2023-02-11T21:24:45;9.80;80.20
18712;DHT22;9485;49.386;8.674;2023-02-11T21:30:07;9.80;80.30
18712;DHT22;9485;49.386;8.674;2023-02-11T21:35:32;9.80;80.40
18712;DHT22;9485;49.386;8.674;2023-02-11T21:40:53;9.80;80.50
18712;DHT22;9485;49.386;8.674;2023-02-11T21:46:15;9.80;80.80
18712;DHT22;9485;49.386;8.674;2023-02-11T21:51:38;9.80;80.90
18712;DHT22;9485;49.386;8.674;2023-02-11T21:56:59;9.80;80.90
18712;DHT22;9485;49.386;8.674;2023-02-11T22:02:21;9.80;81.00
18712;DHT22;9485;49.386;8.674;2023-02-11T22:07:43;9.80;81.10
18712;DHT22;9485;49.386;8.674;2023-02-11T22:13:03;9.80;81.00
18712;DHT22;9485;49.386;8.674;2023-02-11T22:18:24;9.80;81.10
18712;DHT22;9485;49.386;8.674;2023-02-11T22:23:50;9.80;81.00
18712;DHT22;9485;49.386;8.674;2023-02-11T22:29:13;9.70;80.70
18712;DHT22;9485;49.386;8.674;2023-02-11T22:34:34;9.70;80.80
18712;DHT22;9485;49.386;8.674;2023-02-11T22:39:56;9.60;80.90
18712;DHT22;9485;49.386;8.674;2023-02-11T22:45:16;9.60;81.00
18712;DHT22;9485;49.386;8.674;2023-02-11T22:50:37;9.60;81.10
18712;DHT22;9485;49.386;8.674;2023-02-11T22:56:02;9.50;81.20
18712;DHT22;9485;49.386;8.674;2023-02-11T23:01:23;9.50;81.20
18712;DHT22;9485;49.386;8.674;2023-02-11T23:06:44;9.50;81.40
18712;DHT22;9485;49.386;8.674;2023-02-11T23:12:07;9.50;81.60
18712;DHT22;9485;49.386;8.674;2023-02-11T23:17:29;9.50;81.80
18712;DHT22;9485;49.386;8.674;2023-02-11T23:22:49;9.50;82.00
18712;DHT22;9485;49.386;8.674;2023-02-11T23:28:12;9.50;82.00
18712;DHT22;9485;49.386;8.674;2023-02-11T23:33:35;9.50;82.10
18712;DHT22;9485;49.386;8.674;2023-02-11T23:39:02;9.50;82.10
18712;DHT22;9485;49.386;8.674;2023-02-11T23:44:31;9.50;82.20
18712;DHT22;9485;49.386;8.674;2023-02-11T23:49:52;9.50;82.40
18712;DHT22;9485;49.386;8.674;2023-02-11T23:55:16;9.50;82.50
